createdAt,value
2022-09-27T07:06:37.646Z,13.52
2022-09-27T07:11:44.630Z,14.25
2022-09-27T07:16:48.910Z,11.57
2022-09-27T07:21:54.505Z,14.48
2022-09-27T07:26:58.720Z,14.07
2022-09-27T07:32:03.138Z,12.80
2022-09-27T07:37:08.679Z,11.30
2022-09-27T07:42:13.138Z,11.15
2022-09-27T07:47:17.848Z,12.93
2022-09-27T07:57:26.540Z,13.17
2022-09-27T08:02:32.996Z,13.27
2022-09-27T08:07:40.180Z,12.43
2022-09-27T08:12:43.654Z,14.00
2022-09-27T08:17:47.176Z,12.65
2022-09-27T08:22:51.983Z,13.93
2022-09-27T08:27:59.879Z,11.85
2022-09-27T08:33:03.986Z,13.75
2022-09-27T08:38:09.619Z,14.23
2022-09-27T08:43:21.416Z,13.23
2022-09-27T08:48:29.195Z,14.77
2022-09-27T08:53:39.108Z,15.73
2022-09-27T08:58:49.969Z,20.58
2022-09-27T09:03:56.798Z,15.15
2022-09-27T09:09:17.564Z,13.55
2022-09-27T09:14:46.746Z,15.25
2022-09-27T09:20:05.811Z,15.93
2022-09-27T09:25:29.429Z,16.30
2022-09-27T09:30:42.861Z,14.57
2022-09-27T09:35:52.911Z,14.57
2022-09-27T09:41:02.771Z,12.65
2022-09-27T09:46:15.447Z,12.85
2022-09-27T09:51:23.417Z,12.25
2022-09-27T09:56:33.864Z,11.45
2022-09-27T10:01:43.204Z,12.35
2022-09-27T10:06:47.332Z,10.73
2022-09-27T10:11:53.073Z,9.80
2022-09-27T10:17:01.192Z,8.82
2022-09-27T10:22:16.074Z,10.10
2022-09-27T10:32:27.691Z,8.23
2022-09-27T10:37:32.492Z,7.95
2022-09-27T10:42:39.034Z,7.72
2022-09-27T10:47:43.375Z,7.88
2022-09-27T10:52:46.859Z,7.70
2022-09-27T10:57:56.018Z,7.28
2022-09-27T11:03:02.674Z,7.90
2022-09-27T11:08:27.578Z,6.75
2022-09-27T11:18:49.711Z,7.00
2022-09-27T11:24:10.995Z,7.25
2022-09-27T11:29:27.800Z,8.63
2022-09-27T11:34:54.106Z,7.97
2022-09-27T11:40:08.681Z,7.28
2022-09-27T11:51:11.922Z,7.78
2022-09-27T11:56:28.322Z,6.25
2022-09-27T12:01:44.563Z,6.40
2022-09-27T12:06:55.778Z,5.20
2022-09-27T12:12:03.821Z,4.95
2022-09-27T12:17:16.333Z,5.78
2022-09-27T12:22:46.734Z,7.05
2022-09-27T12:27:51.872Z,5.25
2022-09-27T12:33:12.065Z,4.82
2022-09-27T12:38:19.725Z,4.40
2022-09-27T12:43:25.012Z,4.70
2022-09-27T12:48:38.207Z,4.40
2022-09-27T12:53:57.795Z,5.10
2022-09-27T12:59:27.274Z,4.20
2022-09-27T13:04:47.813Z,4.97
2022-09-27T13:10:27.212Z,4.32
2022-09-27T13:15:34.629Z,4.40
2022-09-27T13:20:49.068Z,5.07
2022-09-27T13:25:56.562Z,4.22
2022-09-27T13:31:01.931Z,3.53
2022-09-27T13:36:33.682Z,3.47
2022-09-27T13:42:00.248Z,3.42
2022-09-27T13:47:16.160Z,3.80
2022-09-27T13:52:33.995Z,3.92
2022-09-27T13:57:46.531Z,3.78
2022-09-27T14:03:02.771Z,4.10
2022-09-27T14:08:17.476Z,4.07
2022-09-27T14:13:22.236Z,4.70
2022-09-27T14:18:26.454Z,4.28
2022-09-27T14:23:32.438Z,4.50
2022-09-27T14:28:43.857Z,4.35
2022-09-27T14:33:47.554Z,4.00
2022-09-27T14:38:53.187Z,3.53
2022-09-27T14:43:56.583Z,3.75
2022-09-27T14:49:01.266Z,3.65
2022-09-27T14:59:18.121Z,4.10
2022-09-27T15:04:24.514Z,4.00
2022-09-27T15:09:33.106Z,4.00
2022-09-27T15:14:41.567Z,4.18
2022-09-27T15:19:59.516Z,4.80
2022-09-27T15:25:19.567Z,5.78
2022-09-27T15:30:30.041Z,5.82
2022-09-27T15:35:36.359Z,5.13
2022-09-27T15:41:07.067Z,4.18
2022-09-27T15:46:43.126Z,5.38
2022-09-27T15:51:49.186Z,4.80
2022-09-27T15:56:57.128Z,4.70
2022-09-27T16:02:07.756Z,4.20
2022-09-27T16:07:13.958Z,4.30
2022-09-27T16:12:19.077Z,4.25
2022-09-27T16:17:23.825Z,4.75
2022-09-27T16:27:32.566Z,4.80
2022-09-27T16:32:41.259Z,5.80
2022-09-27T16:37:46.130Z,5.90
2022-09-27T16:42:51.157Z,7.38
2022-09-27T16:47:55.411Z,8.40
2022-09-27T16:53:00.337Z,9.15
2022-09-27T16:58:08.174Z,9.50
2022-09-27T17:03:12.207Z,8.02
2022-09-27T17:08:16.630Z,8.40
2022-09-27T17:13:22.043Z,10.32
2022-09-27T17:18:26.333Z,9.98
2022-09-27T17:23:29.937Z,9.45
2022-09-27T17:28:36.448Z,8.32
2022-09-27T17:33:44.747Z,8.77
2022-09-27T17:38:50.824Z,8.40
2022-09-27T17:43:58.079Z,7.65
2022-09-27T17:49:20.041Z,7.80
2022-09-27T17:54:26.339Z,7.63
2022-09-27T17:59:31.955Z,7.50
2022-09-27T18:04:35.732Z,8.07
2022-09-27T18:09:40.310Z,7.93
2022-09-27T18:14:45.949Z,7.18
2022-09-27T18:19:50.182Z,7.93
2022-09-27T18:24:53.895Z,7.57
2022-09-27T18:30:00.242Z,7.10
2022-09-27T18:35:03.798Z,7.75
2022-09-27T18:40:08.849Z,7.78
2022-09-27T18:45:14.004Z,7.38
2022-09-27T18:50:17.973Z,7.60
2022-09-27T18:55:25.287Z,6.97
2022-09-27T19:00:32.144Z,6.68
2022-09-27T19:05:36.513Z,7.10
2022-09-27T19:10:40.879Z,7.55
2022-09-27T19:15:55.862Z,7.03
2022-09-27T19:26:16.662Z,7.47
2022-09-27T19:31:24.547Z,8.15
2022-09-27T19:36:29.411Z,7.38
2022-09-27T19:46:39.951Z,8.30
2022-09-27T19:51:44.125Z,8.75
2022-09-27T19:56:50.133Z,8.50
2022-09-27T20:01:55.549Z,8.60
2022-09-27T20:06:59.674Z,8.10
2022-09-27T20:12:04.982Z,7.85
2022-09-27T20:17:10.533Z,8.15
2022-09-27T20:22:14.605Z,7.65
2022-09-27T20:27:18.887Z,7.33
2022-09-27T20:32:27.697Z,8.15
2022-09-27T20:37:32.940Z,7.55
2022-09-27T20:47:41.474Z,7.30
2022-09-27T20:52:45.353Z,7.40
2022-09-27T20:57:57.316Z,7.90
2022-09-27T21:03:02.627Z,8.30
2022-09-27T21:08:06.832Z,7.35
2022-09-27T21:13:10.283Z,7.60
2022-09-27T21:18:15.769Z,7.05
2022-09-27T21:23:19.170Z,6.82
2022-09-27T21:28:23.230Z,6.60
2022-09-27T21:33:27.957Z,6.20
2022-09-27T21:43:37.700Z,5.78
2022-09-27T21:48:45.657Z,5.80
2022-09-27T21:53:52.412Z,5.75
2022-09-27T21:58:57.043Z,5.20
2022-09-27T22:04:03.056Z,5.57
2022-09-27T22:09:09.196Z,5.07
2022-09-27T22:14:13.352Z,6.10
2022-09-27T22:19:19.102Z,4.73
2022-09-27T22:24:22.875Z,4.70
2022-09-27T22:29:26.969Z,4.53
2022-09-27T22:34:31.894Z,5.27
2022-09-27T22:39:35.997Z,4.80
2022-09-27T22:44:39.449Z,4.47
2022-09-27T22:49:44.945Z,4.80
2022-09-27T22:54:48.376Z,5.30
2022-09-27T22:59:52.565Z,5.50
2022-09-27T23:04:57.976Z,5.35
2022-09-27T23:10:02.168Z,5.70
2022-09-27T23:15:07.883Z,6.03
2022-09-27T23:20:15.127Z,6.03
2022-09-27T23:25:19.400Z,6.13
2022-09-27T23:30:27.919Z,5.57
2022-09-27T23:35:34.433Z,5.88
2022-09-27T23:40:38.550Z,6.57
2022-09-27T23:45:42.874Z,6.97
2022-09-27T23:50:49.075Z,7.53
2022-09-27T23:56:03.009Z,8.05
